sensor_id;sensor_type;location;lat;lon;timestamp;pressure;altitude;pressure_sealevel;temperature;humidity
29941;BME280;16801;53.562;10.038;2023-07-20T00:03:10;101146.00;;;16.79;85.74
29941;BME280;16801;53.562;10.038;2023-07-20T00:06:35;101143.94;;;16.57;86.33
29941;BME280;16801;53.562;10.038;2023-07-20T00:14:07;101143.13;;;16.89;85.69
29941;BME280;16801;53.562;10.038;2023-07-20T00:18:37;101139.69;;;17.03;85.52
29941;BME280;16801;53.562;10.038;2023-07-20T00:21:32;101136.81;;;16.72;85.77
29941;BME280;16801;53.562;10.038;2023-07-20T00:24:53;101142.25;;;16.72;85.99
29941;BME280;16801;53.562;10.038;2023-07-20T00:28:14;101145.34;;;16.94;85.35
29941;BME280;16801;53.562;10.038;2023-07-20T00:31:37;101149.75;;;17.03;85.19
29941;BME280;16801;53.562;10.038;2023-07-20T00:34:58;101151.94;;;17.07;84.45
29941;BME280;16801;53.562;10.038;2023-07-20T00:38:23;101145.47;;;17.00;84.03
29941;BME280;16801;53.562;10.038;2023-07-20T00:45:34;101137.47;;;16.99;83.88
29941;BME280;16801;53.562;10.038;2023-07-20T00:49:10;101138.34;;;16.83;83.98
29941;BME280;16801;53.562;10.038;2023-07-20T00:52:55;101132.72;;;16.93;84.06
29941;BME280;16801;53.562;10.038;2023-07-20T00:56:18;101144.66;;;17.00;84.40
29941;BME280;16801;53.562;10.038;2023-07-20T00:59:41;101139.69;;;16.63;85.49
29941;BME280;16801;53.562;10.038;2023-07-20T01:03:04;101143.25;;;16.63;86.41
29941;BME280;16801;53.562;10.038;2023-07-20T01:06:31;101142.59;;;16.69;87.49
29941;BME280;16801;53.562;10.038;2023-07-20T01:10:01;101139.69;;;16.55;88.03
29941;BME280;16801;53.562;10.038;2023-07-20T01:13:25;101151.44;;;16.55;88.33
29941;BME280;16801;53.562;10.038;2023-07-20T01:16:51;101144.38;;;16.37;89.41
29941;BME280;16801;53.562;10.038;2023-07-20T01:24:35;101142.47;;;16.29;92.33
29941;BME280;16801;53.562;10.038;2023-07-20T01:31:51;101139.56;;;16.15;93.49
29941;BME280;16801;53.562;10.038;2023-07-20T01:39:04;101134.84;;;16.33;94.43
29941;BME280;16801;53.562;10.038;2023-07-20T01:42:30;101132.63;;;16.28;94.17
29941;BME280;16801;53.562;10.038;2023-07-20T01:45:51;101133.44;;;16.13;94.49
29941;BME280;16801;53.562;10.038;2023-07-20T01:49:16;101135.34;;;16.20;95.33
29941;BME280;16801;53.562;10.038;2023-07-20T01:52:40;101136.53;;;16.34;95.49
29941;BME280;16801;53.562;10.038;2023-07-20T01:56:02;101129.03;;;16.20;95.30
29941;BME280;16801;53.562;10.038;2023-07-20T01:59:24;101126.88;;;16.47;95.61
29941;BME280;16801;53.562;10.038;2023-07-20T02:02:45;101131.97;;;16.34;95.56
29941;BME280;16801;53.562;10.038;2023-07-20T02:06:07;101124.16;;;16.39;95.56
29941;BME280;16801;53.562;10.038;2023-07-20T02:09:32;101126.69;;;16.41;95.29
29941;BME280;16801;53.562;10.038;2023-07-20T02:12:53;101134.41;;;16.53;94.79
29941;BME280;16801;53.562;10.038;2023-07-20T02:16:17;101136.16;;;16.13;95.83
29941;BME280;16801;53.562;10.038;2023-07-20T02:19:38;101145.75;;;16.41;95.97
29941;BME280;16801;53.562;10.038;2023-07-20T02:23:01;101144.00;;;16.24;95.97
29941;BME280;16801;53.562;10.038;2023-07-20T02:26:24;101146.22;;;15.78;96.41
29941;BME280;16801;53.562;10.038;2023-07-20T02:29:48;101143.09;;;15.99;97.72
29941;BME280;16801;53.562;10.038;2023-07-20T02:33:33;101136.97;;;15.97;97.99
29941;BME280;16801;53.562;10.038;2023-07-20T02:36:58;101142.63;;;16.20;97.86
29941;BME280;16801;53.562;10.038;2023-07-20T02:40:22;101144.38;;;16.29;97.88
29941;BME280;16801;53.562;10.038;2023-07-20T02:43:44;101149.28;;;16.25;98.05
29941;BME280;16801;53.562;10.038;2023-07-20T02:47:05;101146.41;;;16.27;97.70
29941;BME280;16801;53.562;10.038;2023-07-20T02:50:27;101152.34;;;16.30;97.72
29941;BME280;16801;53.562;10.038;2023-07-20T02:53:49;101146.94;;;16.38;96.93
29941;BME280;16801;53.562;10.038;2023-07-20T02:57:12;101144.03;;;16.32;97.26
29941;BME280;16801;53.562;10.038;2023-07-20T03:00:33;101144.50;;;16.27;97.02
29941;BME280;16801;53.562;10.038;2023-07-20T03:03:55;101143.00;;;16.25;97.07
29941;BME280;16801;53.562;10.038;2023-07-20T03:07:19;101148.75;;;16.14;96.86
29941;BME280;16801;53.562;10.038;2023-07-20T03:10:45;101154.19;;;16.14;97.45
29941;BME280;16801;53.562;10.038;2023-07-20T03:14:11;101156.50;;;16.00;97.04
29941;BME280;16801;53.562;10.038;2023-07-20T03:17:38;101152.31;;;16.14;97.53
29941;BME280;16801;53.562;10.038;2023-07-20T03:21:00;101157.44;;;16.25;97.44
29941;BME280;16801;53.562;10.038;2023-07-20T03:24:27;101153.19;;;16.23;97.38
29941;BME280;16801;53.562;10.038;2023-07-20T03:27:57;101162.97;;;15.99;97.90
29941;BME280;16801;53.562;10.038;2023-07-20T03:31:22;101159.91;;;16.02;97.94
29941;BME280;16801;53.562;10.038;2023-07-20T03:34:44;101162.53;;;16.12;98.42
29941;BME280;16801;53.562;10.038;2023-07-20T03:38:08;101167.94;;;16.04;97.94
29941;BME280;16801;53.562;10.038;2023-07-20T03:41:29;101162.63;;;16.02;97.81
29941;BME280;16801;53.562;10.038;2023-07-20T03:44:52;101164.47;;;15.94;97.78
29941;BME280;16801;53.562;10.038;2023-07-20T03:48:34;101166.38;;;16.02;97.79
29941;BME280;16801;53.562;10.038;2023-07-20T03:51:55;101170.78;;;16.02;97.88
29941;BME280;16801;53.562;10.038;2023-07-20T03:55:30;101158.97;;;15.78;97.74
29941;BME280;16801;53.562;10.038;2023-07-20T03:59:00;101163.78;;;15.92;98.04
29941;BME280;16801;53.562;10.038;2023-07-20T04:02:23;101157.13;;;15.86;97.98
29941;BME280;16801;53.562;10.038;2023-07-20T04:05:46;101167.28;;;16.10;97.64
29941;BME280;16801;53.562;10.038;2023-07-20T04:09:08;101170.03;;;16.26;97.72
29941;BME280;16801;53.562;10.038;2023-07-20T04:12:29;101166.81;;;16.23;97.87
29941;BME280;16801;53.562;10.038;2023-07-20T04:15:50;101172.59;;;16.36;97.42
29941;BME280;16801;53.562;10.038;2023-07-20T04:19:14;101172.06;;;16.24;97.56
29941;BME280;16801;53.562;10.038;2023-07-20T04:22:39;101179.06;;;16.27;97.31
29941;BME280;16801;53.562;10.038;2023-07-20T04:26:03;101182.19;;;16.48;97.51
29941;BME280;16801;53.562;10.038;2023-07-20T04:29:26;101181.88;;;16.59;97.16
29941;BME280;16801;53.562;10.038;2023-07-20T04:32:47;101183.06;;;16.56;96.88
29941;BME280;16801;53.562;10.038;2023-07-20T04:36:10;101188.69;;;16.63;97.20
29941;BME280;16801;53.562;10.038;2023-07-20T04:39:37;101182.38;;;16.54;96.79
29941;BME280;16801;53.562;10.038;2023-07-20T04:43:05;101186.75;;;16.47;96.51
29941;BME280;16801;53.562;10.038;2023-07-20T04:46:32;101180.75;;;16.36;96.27
29941;BME280;16801;53.562;10.038;2023-07-20T04:50:35;101184.69;;;16.33;96.43
29941;BME280;16801;53.562;10.038;2023-07-20T04:53:57;101184.38;;;16.44;96.59
29941;BME280;16801;53.562;10.038;2023-07-20T04:57:23;101177.06;;;16.45;96.61
29941;BME280;16801;53.562;10.038;2023-07-20T05:01:10;101183.19;;;16.47;96.41
29941;BME280;16801;53.562;10.038;2023-07-20T05:04:32;101182.03;;;16.49;95.97
29941;BME280;16801;53.562;10.038;2023-07-20T05:07:59;101183.91;;;16.57;95.71
29941;BME280;16801;53.562;10.038;2023-07-20T05:11:20;101176.13;;;16.78;95.09
29941;BME280;16801;53.562;10.038;2023-07-20T05:14:45;101178.84;;;16.94;94.82
29941;BME280;16801;53.562;10.038;2023-07-20T05:18:08;101177.16;;;17.01;94.08
29941;BME280;16801;53.562;10.038;2023-07-20T05:21:40;101181.06;;;16.66;94.18
29941;BME280;16801;53.562;10.038;2023-07-20T05:25:03;101182.91;;;16.58;94.32
29941;BME280;16801;53.562;10.038;2023-07-20T05:28:24;101177.66;;;16.81;94.38
29941;BME280;16801;53.562;10.038;2023-07-20T05:32:02;101176.81;;;16.80;94.56
29941;BME280;16801;53.562;10.038;2023-07-20T05:35:25;101174.09;;;16.88;94.22
29941;BME280;16801;53.562;10.038;2023-07-20T05:38:47;101180.00;;;16.59;94.62
29941;BME280;16801;53.562;10.038;2023-07-20T05:42:09;101184.59;;;16.59;94.58
29941;BME280;16801;53.562;10.038;2023-07-20T05:45:33;101178.66;;;16.71;94.18
29941;BME280;16801;53.562;10.038;2023-07-20T05:49:36;101183.94;;;16.73;94.20
29941;BME280;16801;53.562;10.038;2023-07-20T05:53:34;101186.63;;;16.57;94.72
29941;BME280;16801;53.562;10.038;2023-07-20T05:57:09;101183.97;;;16.81;95.25
29941;BME280;16801;53.562;10.038;2023-07-20T06:04:39;101188.22;;;17.00;93.68
29941;BME280;16801;53.562;10.038;2023-07-20T06:11:38;101195.19;;;17.26;91.68
29941;BME280;16801;53.562;10.038;2023-07-20T06:15:05;101194.19;;;17.35;90.53
29941;BME280;16801;53.562;10.038;2023-07-20T06:18:46;101196.03;;;17.35;90.15
29941;BME280;16801;53.562;10.038;2023-07-20T06:22:09;101198.59;;;16.80;89.88
29941;BME280;16801;53.562;10.038;2023-07-20T06:25:32;101201.00;;;17.07;90.67
29941;BME280;16801;53.562;10.038;2023-07-20T06:29:07;101204.94;;;17.21;89.76
29941;BME280;16801;53.562;10.038;2023-07-20T06:32:31;101204.22;;;17.27;88.74
29941;BME280;16801;53.562;10.038;2023-07-20T06:35:58;101206.22;;;17.81;87.66
29941;BME280;16801;53.562;10.038;2023-07-20T06:43:05;101208.66;;;18.54;84.17
29941;BME280;16801;53.562;10.038;2023-07-20T06:50:07;101210.63;;;17.82;83.41
29941;BME280;16801;53.562;10.038;2023-07-20T06:53:35;101201.91;;;17.95;82.95
29941;BME280;16801;53.562;10.038;2023-07-20T06:56:57;101201.28;;;17.77;81.67
29941;BME280;16801;53.562;10.038;2023-07-20T07:00:19;101210.19;;;17.63;81.20
29941;BME280;16801;53.562;10.038;2023-07-20T07:03:46;101198.91;;;17.66;80.80
29941;BME280;16801;53.562;10.038;2023-07-20T07:07:08;101203.72;;;18.10;80.16
29941;BME280;16801;53.562;10.038;2023-07-20T07:10:29;101200.72;;;18.28;79.61
29941;BME280;16801;53.562;10.038;2023-07-20T07:13:51;101208.06;;;18.27;78.54
29941;BME280;16801;53.562;10.038;2023-07-20T07:17:14;101197.09;;;18.74;76.07
29941;BME280;16801;53.562;10.038;2023-07-20T07:20:55;101196.22;;;18.74;75.58
29941;BME280;16801;53.562;10.038;2023-07-20T07:24:16;101208.84;;;18.52;73.15
29941;BME280;16801;53.562;10.038;2023-07-20T07:27:41;101197.94;;;18.52;71.78
29941;BME280;16801;53.562;10.038;2023-07-20T07:31:04;101210.31;;;18.63;71.34
29941;BME280;16801;53.562;10.038;2023-07-20T07:34:28;101204.94;;;18.47;70.79
29941;BME280;16801;53.562;10.038;2023-07-20T07:38:10;101203.53;;;18.51;70.33
29941;BME280;16801;53.562;10.038;2023-07-20T07:41:32;101187.81;;;18.83;69.81
29941;BME280;16801;53.562;10.038;2023-07-20T07:44:53;101207.88;;;18.68;71.16
29941;BME280;16801;53.562;10.038;2023-07-20T07:48:14;101219.28;;;18.41;72.68
29941;BME280;16801;53.562;10.038;2023-07-20T07:51:38;101223.28;;;18.22;73.07
29941;BME280;16801;53.562;10.038;2023-07-20T07:54:59;101228.66;;;18.38;72.80
29941;BME280;16801;53.562;10.038;2023-07-20T07:58:21;101218.88;;;18.82;72.21
29941;BME280;16801;53.562;10.038;2023-07-20T08:01:43;101220.00;;;18.96;70.48
29941;BME280;16801;53.562;10.038;2023-07-20T08:05:05;101204.19;;;19.06;69.34
29941;BME280;16801;53.562;10.038;2023-07-20T08:08:28;101227.53;;;18.63;69.37
29941;BME280;16801;53.562;10.038;2023-07-20T08:15:20;101224.28;;;18.68;69.08
29941;BME280;16801;53.562;10.038;2023-07-20T08:18:43;101221.13;;;19.24;67.52
29941;BME280;16801;53.562;10.038;2023-07-20T08:22:05;101218.88;;;19.50;67.20
29941;BME280;16801;53.562;10.038;2023-07-20T08:25:28;101217.16;;;19.49;67.00
29941;BME280;16801;53.562;10.038;2023-07-20T08:28:50;101222.94;;;19.54;66.91
29941;BME280;16801;53.562;10.038;2023-07-20T08:32:11;101217.72;;;19.45;65.01
29941;BME280;16801;53.562;10.038;2023-07-20T08:35:38;101222.56;;;19.57;64.87
29941;BME280;16801;53.562;10.038;2023-07-20T08:39:02;101213.38;;;20.02;65.05
29941;BME280;16801;53.562;10.038;2023-07-20T08:42:25;101218.66;;;20.33;63.32
29941;BME280;16801;53.562;10.038;2023-07-20T08:45:48;101231.13;;;20.35;61.93
29941;BME280;16801;53.562;10.038;2023-07-20T08:49:11;101230.25;;;20.49;61.54
29941;BME280;16801;53.562;10.038;2023-07-20T08:52:34;101262.19;;;19.61;65.43
29941;BME280;16801;53.562;10.038;2023-07-20T08:55:58;101244.16;;;18.54;72.43
29941;BME280;16801;53.562;10.038;2023-07-20T08:59:40;101253.91;;;18.01;76.01
29941;BME280;16801;53.562;10.038;2023-07-20T09:03:06;101249.19;;;18.26;77.27
29941;BME280;16801;53.562;10.038;2023-07-20T09:10:24;101242.81;;;19.34;77.39
29941;BME280;16801;53.562;10.038;2023-07-20T09:13:46;101244.88;;;19.24;75.34
29941;BME280;16801;53.562;10.038;2023-07-20T09:17:12;101249.06;;;19.57;73.36
29941;BME280;16801;53.562;10.038;2023-07-20T09:20:36;101232.91;;;20.43;71.75
29941;BME280;16801;53.562;10.038;2023-07-20T09:23:57;101229.91;;;20.38;68.44
29941;BME280;16801;53.562;10.038;2023-07-20T09:27:19;101234.22;;;20.03;66.95
29941;BME280;16801;53.562;10.038;2023-07-20T09:30:40;101243.97;;;20.35;66.16
29941;BME280;16801;53.562;10.038;2023-07-20T09:34:04;101272.41;;;19.45;70.05
29941;BME280;16801;53.562;10.038;2023-07-20T09:40:46;101280.53;;;18.38;77.86
29941;BME280;16801;53.562;10.038;2023-07-20T09:44:10;101281.91;;;18.34;78.73
29941;BME280;16801;53.562;10.038;2023-07-20T09:47:42;101284.13;;;18.38;79.25
29941;BME280;16801;53.562;10.038;2023-07-20T09:51:07;101272.34;;;18.54;76.98
29941;BME280;16801;53.562;10.038;2023-07-20T09:54:28;101266.03;;;19.07;75.54
29941;BME280;16801;53.562;10.038;2023-07-20T09:57:53;101259.09;;;19.64;73.90
29941;BME280;16801;53.562;10.038;2023-07-20T10:04:46;101268.94;;;19.51;71.41
29941;BME280;16801;53.562;10.038;2023-07-20T10:08:16;101253.22;;;19.67;70.08
29941;BME280;16801;53.562;10.038;2023-07-20T10:11:43;101254.34;;;19.44;70.24
29941;BME280;16801;53.562;10.038;2023-07-20T10:15:11;101250.09;;;19.56;69.81
29941;BME280;16801;53.562;10.038;2023-07-20T10:18:49;101239.97;;;19.79;68.79
29941;BME280;16801;53.562;10.038;2023-07-20T10:22:25;101234.19;;;19.88;68.02
29941;BME280;16801;53.562;10.038;2023-07-20T10:25:53;101238.16;;;20.59;67.98
29941;BME280;16801;53.562;10.038;2023-07-20T10:29:18;101232.66;;;20.59;67.48
29941;BME280;16801;53.562;10.038;2023-07-20T10:32:58;101237.16;;;20.16;67.39
29941;BME280;16801;53.562;10.038;2023-07-20T10:36:32;101249.44;;;20.35;66.66
29941;BME280;16801;53.562;10.038;2023-07-20T10:39:55;101232.00;;;20.21;65.16
29941;BME280;16801;53.562;10.038;2023-07-20T10:43:21;101241.44;;;21.26;64.46
29941;BME280;16801;53.562;10.038;2023-07-20T10:46:44;101233.84;;;21.21;65.20
29941;BME280;16801;53.562;10.038;2023-07-20T10:50:06;101233.34;;;20.46;63.36
29941;BME280;16801;53.562;10.038;2023-07-20T10:53:28;101242.19;;;20.78;63.62
29941;BME280;16801;53.562;10.038;2023-07-20T10:56:49;101245.69;;;21.49;62.21
29941;BME280;16801;53.562;10.038;2023-07-20T11:00:19;101245.03;;;21.96;62.01
29941;BME280;16801;53.562;10.038;2023-07-20T11:03:50;101245.72;;;20.93;62.52
29941;BME280;16801;53.562;10.038;2023-07-20T11:07:17;101253.09;;;20.56;63.56
29941;BME280;16801;53.562;10.038;2023-07-20T11:10:39;101251.94;;;20.65;64.59
29941;BME280;16801;53.562;10.038;2023-07-20T11:14:22;101251.28;;;20.49;64.96
29941;BME280;16801;53.562;10.038;2023-07-20T11:17:45;101273.72;;;20.73;65.56
29941;BME280;16801;53.562;10.038;2023-07-20T11:21:10;101261.03;;;21.44;63.22
29941;BME280;16801;53.562;10.038;2023-07-20T11:24:32;101289.44;;;21.01;60.57
29941;BME280;16801;53.562;10.038;2023-07-20T11:27:54;101281.78;;;20.75;61.40
29941;BME280;16801;53.562;10.038;2023-07-20T11:31:27;101278.38;;;20.73;60.73
29941;BME280;16801;53.562;10.038;2023-07-20T11:34:53;101279.53;;;21.00;60.25
29941;BME280;16801;53.562;10.038;2023-07-20T11:38:15;101271.03;;;20.95;59.52
29941;BME280;16801;53.562;10.038;2023-07-20T11:45:32;101267.75;;;21.84;58.18
29941;BME280;16801;53.562;10.038;2023-07-20T11:48:57;101271.03;;;22.00;57.08
29941;BME280;16801;53.562;10.038;2023-07-20T11:52:30;101272.59;;;21.61;57.01
29941;BME280;16801;53.562;10.038;2023-07-20T11:56:07;101264.56;;;22.49;56.62
29941;BME280;16801;53.562;10.038;2023-07-20T11:59:28;101257.00;;;23.31;55.95
29941;BME280;16801;53.562;10.038;2023-07-20T12:02:53;101266.75;;;22.60;55.48
29941;BME280;16801;53.562;10.038;2023-07-20T12:06:14;101268.78;;;22.92;56.04
29941;BME280;16801;53.562;10.038;2023-07-20T12:10:02;101256.47;;;22.41;56.81
29941;BME280;16801;53.562;10.038;2023-07-20T12:13:42;101261.06;;;23.35;55.67
29941;BME280;16801;53.562;10.038;2023-07-20T12:17:08;101247.31;;;23.61;55.11
29941;BME280;16801;53.562;10.038;2023-07-20T12:24:23;101264.19;;;22.58;55.20
29941;BME280;16801;53.562;10.038;2023-07-20T12:27:47;101254.22;;;22.16;55.98
29941;BME280;16801;53.562;10.038;2023-07-20T12:31:09;101273.31;;;21.69;57.40
29941;BME280;16801;53.562;10.038;2023-07-20T12:34:30;101270.00;;;21.53;58.55
29941;BME280;16801;53.562;10.038;2023-07-20T12:37:52;101291.16;;;21.16;59.02
29941;BME280;16801;53.562;10.038;2023-07-20T12:41:16;101260.75;;;21.60;58.69
29941;BME280;16801;53.562;10.038;2023-07-20T12:48:43;101258.66;;;22.17;57.69
29941;BME280;16801;53.562;10.038;2023-07-20T12:55:44;101262.31;;;21.90;58.66
29941;BME280;16801;53.562;10.038;2023-07-20T12:59:08;101263.59;;;21.94;58.39
29941;BME280;16801;53.562;10.038;2023-07-20T13:02:31;101262.78;;;22.35;58.01
29941;BME280;16801;53.562;10.038;2023-07-20T13:05:55;101265.84;;;22.53;56.53
29941;BME280;16801;53.562;10.038;2023-07-20T13:09:20;101250.22;;;23.27;53.67
29941;BME280;16801;53.562;10.038;2023-07-20T13:12:42;101256.81;;;22.59;53.81
29941;BME280;16801;53.562;10.038;2023-07-20T13:16:04;101254.28;;;23.96;50.77
29941;BME280;16801;53.562;10.038;2023-07-20T13:19:25;101246.09;;;25.85;47.71
29941;BME280;16801;53.562;10.038;2023-07-20T13:23:13;101234.63;;;27.67;43.01
29941;BME280;16801;53.562;10.038;2023-07-20T13:26:40;101244.59;;;28.50;40.93
29941;BME280;16801;53.562;10.038;2023-07-20T13:30:01;101254.41;;;28.17;40.52
29941;BME280;16801;53.562;10.038;2023-07-20T13:33:26;101255.25;;;24.41;46.79
29941;BME280;16801;53.562;10.038;2023-07-20T13:36:48;101254.34;;;25.91;44.24
29941;BME280;16801;53.562;10.038;2023-07-20T13:40:12;101245.56;;;28.43;40.63
29941;BME280;16801;53.562;10.038;2023-07-20T13:43:37;101234.28;;;28.73;40.36
29941;BME280;16801;53.562;10.038;2023-07-20T13:46:58;101238.47;;;27.90;41.30
29941;BME280;16801;53.562;10.038;2023-07-20T13:50:20;101245.75;;;28.14;41.54
29941;BME280;16801;53.562;10.038;2023-07-20T13:57:22;101252.78;;;25.77;45.83
29941;BME280;16801;53.562;10.038;2023-07-20T14:00:44;101261.28;;;23.40;49.75
29941;BME280;16801;53.562;10.038;2023-07-20T14:04:30;101260.16;;;24.96;48.18
29941;BME280;16801;53.562;10.038;2023-07-20T14:07:52;101258.53;;;25.76;46.65
29941;BME280;16801;53.562;10.038;2023-07-20T14:11:14;101265.56;;;24.78;47.99
29941;BME280;16801;53.562;10.038;2023-07-20T14:14:38;101266.63;;;25.15;46.31
29941;BME280;16801;53.562;10.038;2023-07-20T14:22:03;101256.97;;;24.35;45.19
29941;BME280;16801;53.562;10.038;2023-07-20T14:25:37;101263.56;;;24.92;47.29
29941;BME280;16801;53.562;10.038;2023-07-20T14:29:01;101253.56;;;24.46;48.21
29941;BME280;16801;53.562;10.038;2023-07-20T14:32:43;101261.84;;;24.33;47.61
29941;BME280;16801;53.562;10.038;2023-07-20T14:36:18;101254.94;;;24.69;46.94
29941;BME280;16801;53.562;10.038;2023-07-20T14:39:40;101266.81;;;24.69;47.64
29941;BME280;16801;53.562;10.038;2023-07-20T14:43:04;101265.41;;;24.47;47.04
29941;BME280;16801;53.562;10.038;2023-07-20T14:46:36;101260.22;;;24.70;47.54
29941;BME280;16801;53.562;10.038;2023-07-20T14:50:01;101264.66;;;24.84;46.52
29941;BME280;16801;53.562;10.038;2023-07-20T14:53:23;101261.63;;;25.30;46.05
29941;BME280;16801;53.562;10.038;2023-07-20T14:56:54;101254.69;;;25.21;47.12
29941;BME280;16801;53.562;10.038;2023-07-20T15:00:19;101267.78;;;25.32;47.57
29941;BME280;16801;53.562;10.038;2023-07-20T15:08:04;101255.78;;;23.79;47.92
29941;BME280;16801;53.562;10.038;2023-07-20T15:11:28;101265.50;;;25.22;47.27
29941;BME280;16801;53.562;10.038;2023-07-20T15:15:22;101258.59;;;24.56;48.36
29941;BME280;16801;53.562;10.038;2023-07-20T15:19:19;101256.84;;;23.71;49.43
29941;BME280;16801;53.562;10.038;2023-07-20T15:23:19;101255.03;;;22.92;51.93
29941;BME280;16801;53.562;10.038;2023-07-20T15:45:49;101242.34;;;24.28;49.03
29941;BME280;16801;53.562;10.038;2023-07-20T15:56:33;101249.59;;;23.31;49.03
29941;BME280;16801;53.562;10.038;2023-07-20T15:59:54;101258.81;;;22.91;49.70
29941;BME280;16801;53.562;10.038;2023-07-20T16:03:17;101257.91;;;23.44;49.22
29941;BME280;16801;53.562;10.038;2023-07-20T16:06:39;101239.69;;;23.69;47.41
29941;BME280;16801;53.562;10.038;2023-07-20T16:10:00;101251.31;;;23.98;47.68
29941;BME280;16801;53.562;10.038;2023-07-20T16:13:23;101251.75;;;23.62;48.17
29941;BME280;16801;53.562;10.038;2023-07-20T16:16:44;101247.31;;;23.54;48.13
29941;BME280;16801;53.562;10.038;2023-07-20T16:20:08;101247.88;;;24.28;47.43
29941;BME280;16801;53.562;10.038;2023-07-20T16:23:30;101244.53;;;24.13;48.48
29941;BME280;16801;53.562;10.038;2023-07-20T16:26:52;101236.72;;;23.64;47.65
29941;BME280;16801;53.562;10.038;2023-07-20T16:30:13;101244.53;;;23.22;48.26
29941;BME280;16801;53.562;10.038;2023-07-20T16:33:35;101250.84;;;23.09;49.12
29941;BME280;16801;53.562;10.038;2023-07-20T16:36:59;101246.25;;;23.36;48.62
29941;BME280;16801;53.562;10.038;2023-07-20T16:40:24;101237.72;;;23.11;49.60
29941;BME280;16801;53.562;10.038;2023-07-20T16:43:50;101239.00;;;23.09;49.84
29941;BME280;16801;53.562;10.038;2023-07-20T16:47:45;101245.56;;;23.21;49.98
29941;BME280;16801;53.562;10.038;2023-07-20T16:51:07;101240.00;;;22.88;51.65
29941;BME280;16801;53.562;10.038;2023-07-20T16:54:30;101240.53;;;23.70;51.47
29941;BME280;16801;53.562;10.038;2023-07-20T16:57:54;101230.16;;;23.52;51.03
29941;BME280;16801;53.562;10.038;2023-07-20T17:01:16;101241.09;;;23.26;52.02
29941;BME280;16801;53.562;10.038;2023-07-20T17:04:39;101234.22;;;22.76;52.36
29941;BME280;16801;53.562;10.038;2023-07-20T17:08:05;101233.84;;;22.79;52.76
29941;BME280;16801;53.562;10.038;2023-07-20T17:11:29;101230.22;;;22.72;53.26
29941;BME280;16801;53.562;10.038;2023-07-20T17:14:53;101230.81;;;22.68;52.47
29941;BME280;16801;53.562;10.038;2023-07-20T17:18:17;101227.34;;;23.13;51.44
29941;BME280;16801;53.562;10.038;2023-07-20T17:21:43;101227.41;;;23.59;51.16
29941;BME280;16801;53.562;10.038;2023-07-20T17:25:14;101223.16;;;23.43;51.90
29941;BME280;16801;53.562;10.038;2023-07-20T17:28:43;101218.44;;;22.98;52.45
29941;BME280;16801;53.562;10.038;2023-07-20T17:32:15;101228.38;;;22.45;52.54
29941;BME280;16801;53.562;10.038;2023-07-20T17:35:41;101232.38;;;22.36;54.99
29941;BME280;16801;53.562;10.038;2023-07-20T17:39:06;101222.59;;;21.93;54.26
29941;BME280;16801;53.562;10.038;2023-07-20T17:42:50;101226.38;;;21.64;54.78
29941;BME280;16801;53.562;10.038;2023-07-20T17:46:13;101216.94;;;21.94;55.83
29941;BME280;16801;53.562;10.038;2023-07-20T17:50:15;101217.69;;;21.88;55.36
29941;BME280;16801;53.562;10.038;2023-07-20T17:54:01;101217.53;;;21.41;55.46
29941;BME280;16801;53.562;10.038;2023-07-20T17:57:49;101223.16;;;21.33;55.38
29941;BME280;16801;53.562;10.038;2023-07-20T18:01:17;101215.94;;;21.53;56.36
29941;BME280;16801;53.562;10.038;2023-07-20T18:04:41;101219.84;;;21.65;56.11
29941;BME280;16801;53.562;10.038;2023-07-20T18:08:24;101221.69;;;21.58;56.09
29941;BME280;16801;53.562;10.038;2023-07-20T18:11:56;101216.59;;;21.55;55.26
29941;BME280;16801;53.562;10.038;2023-07-20T18:15:18;101212.91;;;21.20;55.29
29941;BME280;16801;53.562;10.038;2023-07-20T18:18:41;101227.81;;;20.97;56.10
29941;BME280;16801;53.562;10.038;2023-07-20T18:22:03;101223.59;;;20.94;57.20
29941;BME280;16801;53.562;10.038;2023-07-20T18:25:25;101220.66;;;20.96;58.76
29941;BME280;16801;53.562;10.038;2023-07-20T18:28:58;101222.44;;;21.03;58.38
29941;BME280;16801;53.562;10.038;2023-07-20T18:32:36;101219.28;;;20.85;58.93
29941;BME280;16801;53.562;10.038;2023-07-20T18:36:12;101232.78;;;20.87;59.15
29941;BME280;16801;53.562;10.038;2023-07-20T18:39:34;101225.69;;;20.92;59.03
29941;BME280;16801;53.562;10.038;2023-07-20T18:42:56;101227.72;;;20.84;59.30
29941;BME280;16801;53.562;10.038;2023-07-20T18:46:17;101223.78;;;20.93;59.85
29941;BME280;16801;53.562;10.038;2023-07-20T18:49:39;101225.31;;;20.59;60.22
29941;BME280;16801;53.562;10.038;2023-07-20T18:53:01;101229.22;;;20.71;60.44
29941;BME280;16801;53.562;10.038;2023-07-20T18:56:24;101233.56;;;20.81;61.10
29941;BME280;16801;53.562;10.038;2023-07-20T18:59:52;101226.28;;;20.52;61.15
29941;BME280;16801;53.562;10.038;2023-07-20T19:03:13;101235.28;;;20.31;61.44
29941;BME280;16801;53.562;10.038;2023-07-20T19:06:35;101236.00;;;20.54;61.41
29941;BME280;16801;53.562;10.038;2023-07-20T19:10:28;101235.56;;;20.22;62.15
29941;BME280;16801;53.562;10.038;2023-07-20T19:13:52;101233.13;;;20.77;62.10
29941;BME280;16801;53.562;10.038;2023-07-20T19:17:14;101226.03;;;20.68;61.98
29941;BME280;16801;53.562;10.038;2023-07-20T19:20:36;101231.19;;;20.92;60.76
29941;BME280;16801;53.562;10.038;2023-07-20T19:23:57;101233.88;;;20.71;60.88
29941;BME280;16801;53.562;10.038;2023-07-20T19:27:19;101239.97;;;20.52;61.49
29941;BME280;16801;53.562;10.038;2023-07-20T19:30:41;101245.00;;;20.34;62.08